sensor_id;sensor_type;location;lat;lon;timestamp;pressure;altitude;pressure_sealevel;temperature;humidity
59009;BME280;44794;42.652;23.318;2023-04-02T00:01:49;93654.84;;;8.27;72.39
59009;BME280;44794;42.652;23.318;2023-04-02T00:04:24;93652.91;;;8.20;72.74
59009;BME280;44794;42.652;23.318;2023-04-02T00:06:55;93647.47;;;8.22;72.17
59009;BME280;44794;42.652;23.318;2023-04-02T00:09:40;93652.63;;;8.22;71.31
59009;BME280;44794;42.652;23.318;2023-04-02T00:12:18;93661.81;;;8.26;71.51
59009;BME280;44794;42.652;23.318;2023-04-02T00:14:46;93645.84;;;8.22;72.11
59009;BME280;44794;42.652;23.318;2023-04-02T00:17:12;93661.34;;;8.11;72.16
59009;BME280;44794;42.652;23.318;2023-04-02T00:19:57;93667.22;;;8.13;72.76
59009;BME280;44794;42.652;23.318;2023-04-02T00:22:29;93655.28;;;8.01;72.70
59009;BME280;44794;42.652;23.318;2023-04-02T00:24:56;93651.97;;;7.99;73.47
59009;BME280;44794;42.652;23.318;2023-04-02T00:27:21;93643.97;;;8.02;73.03
59009;BME280;44794;42.652;23.318;2023-04-02T00:29:49;93630.09;;;8.03;72.34
59009;BME280;44794;42.652;23.318;2023-04-02T00:32:19;93638.06;;;8.11;71.33
59009;BME280;44794;42.652;23.318;2023-04-02T00:34:46;93651.13;;;8.20;70.31
59009;BME280;44794;42.652;23.318;2023-04-02T00:37:17;93652.63;;;8.22;70.58
59009;BME280;44794;42.652;23.318;2023-04-02T00:39:49;93652.41;;;8.25;70.46
59009;BME280;44794;42.652;23.318;2023-04-02T00:42:15;93653.13;;;8.27;70.42
59009;BME280;44794;42.652;23.318;2023-04-02T00:44:44;93643.94;;;8.23;71.38
59009;BME280;44794;42.652;23.318;2023-04-02T00:49:44;93639.53;;;8.15;70.83
59009;BME280;44794;42.652;23.318;2023-04-02T00:52:16;93647.72;;;8.20;70.49
59009;BME280;44794;42.652;23.318;2023-04-02T00:57:29;93642.78;;;8.17;72.05
59009;BME280;44794;42.652;23.318;2023-04-02T01:00:09;93640.44;;;8.03;72.22
59009;BME280;44794;42.652;23.318;2023-04-02T01:02:40;93631.75;;;8.04;72.50
59009;BME280;44794;42.652;23.318;2023-04-02T01:10:46;93638.53;;;8.26;70.17
59009;BME280;44794;42.652;23.318;2023-04-02T01:13:46;93643.00;;;8.14;70.92
59009;BME280;44794;42.652;23.318;2023-04-02T01:16:25;93635.50;;;8.22;70.19
59009;BME280;44794;42.652;23.318;2023-04-02T01:19:17;93638.16;;;8.31;69.27
59009;BME280;44794;42.652;23.318;2023-04-02T01:24:33;93637.97;;;8.23;69.85
59009;BME280;44794;42.652;23.318;2023-04-02T01:27:05;93648.38;;;8.32;68.93
59009;BME280;44794;42.652;23.318;2023-04-02T01:29:38;93652.47;;;8.35;69.08
59009;BME280;44794;42.652;23.318;2023-04-02T01:32:09;93661.81;;;8.26;68.60
59009;BME280;44794;42.652;23.318;2023-04-02T01:34:37;93662.84;;;8.35;67.92
59009;BME280;44794;42.652;23.318;2023-04-02T01:43:12;93657.63;;;8.46;66.95
59009;BME280;44794;42.652;23.318;2023-04-02T01:45:40;93660.09;;;8.47;66.57
59009;BME280;44794;42.652;23.318;2023-04-02T01:48:15;93661.84;;;8.47;66.57
59009;BME280;44794;42.652;23.318;2023-04-02T01:50:43;93652.06;;;8.50;66.19
59009;BME280;44794;42.652;23.318;2023-04-02T01:53:12;93647.88;;;8.49;66.31
59009;BME280;44794;42.652;23.318;2023-04-02T01:55:57;93659.66;;;8.42;66.68
59009;BME280;44794;42.652;23.318;2023-04-02T01:58:29;93649.31;;;8.42;66.95
59009;BME280;44794;42.652;23.318;2023-04-02T02:01:06;93650.47;;;8.38;66.54
59009;BME280;44794;42.652;23.318;2023-04-02T02:03:37;93645.44;;;8.57;65.39
59009;BME280;44794;42.652;23.318;2023-04-02T02:06:04;93649.69;;;8.58;65.30
59009;BME280;44794;42.652;23.318;2023-04-02T02:08:46;93643.25;;;8.22;71.57
59009;BME280;44794;42.652;23.318;2023-04-02T02:11:17;93644.25;;;7.77;75.63
59009;BME280;44794;42.652;23.318;2023-04-02T02:13:51;93644.06;;;7.58;77.54
59009;BME280;44794;42.652;23.318;2023-04-02T02:16:17;93631.84;;;7.38;79.35
59009;BME280;44794;42.652;23.318;2023-04-02T02:18:48;93633.13;;;7.11;81.25
59009;BME280;44794;42.652;23.318;2023-04-02T02:21:38;93631.13;;;7.03;81.97
59009;BME280;44794;42.652;23.318;2023-04-02T02:24:16;93637.09;;;6.93;82.70
59009;BME280;44794;42.652;23.318;2023-04-02T02:26:45;93635.19;;;6.84;83.31
59009;BME280;44794;42.652;23.318;2023-04-02T02:29:16;93631.78;;;6.72;83.81
59009;BME280;44794;42.652;23.318;2023-04-02T02:31:45;93642.06;;;6.62;84.12
59009;BME280;44794;42.652;23.318;2023-04-02T02:34:17;93634.56;;;6.69;83.91
59009;BME280;44794;42.652;23.318;2023-04-02T02:36:55;93627.41;;;6.73;83.77
59009;BME280;44794;42.652;23.318;2023-04-02T02:39:23;93629.41;;;6.59;83.81
59009;BME280;44794;42.652;23.318;2023-04-02T02:44:35;93630.13;;;6.71;81.90
59009;BME280;44794;42.652;23.318;2023-04-02T02:47:17;93634.03;;;6.77;81.85
59009;BME280;44794;42.652;23.318;2023-04-02T02:49:49;93629.19;;;6.83;81.32
59009;BME280;44794;42.652;23.318;2023-04-02T02:52:20;93628.03;;;6.76;80.94
59009;BME280;44794;42.652;23.318;2023-04-02T02:54:48;93633.78;;;6.80;81.06
59009;BME280;44794;42.652;23.318;2023-04-02T02:57:22;93643.88;;;6.94;80.43
59009;BME280;44794;42.652;23.318;2023-04-02T02:59:50;93638.38;;;6.98;80.31
59009;BME280;44794;42.652;23.318;2023-04-02T03:02:17;93634.16;;;6.86;80.62
59009;BME280;44794;42.652;23.318;2023-04-02T03:04:50;93632.28;;;6.88;79.17
59009;BME280;44794;42.652;23.318;2023-04-02T03:07:21;93648.50;;;7.12;77.72
59009;BME280;44794;42.652;23.318;2023-04-02T03:10:00;93641.00;;;7.09;77.94
59009;BME280;44794;42.652;23.318;2023-04-02T03:22:48;93665.84;;;7.98;70.46
59009;BME280;44794;42.652;23.318;2023-04-02T03:26:00;93651.34;;;7.42;78.26
59009;BME280;44794;42.652;23.318;2023-04-02T03:28:12;93654.31;;;6.92;83.40
59009;BME280;44794;42.652;23.318;2023-04-02T03:33:42;93640.34;;;6.39;88.42
59009;BME280;44794;42.652;23.318;2023-04-02T03:39:27;93633.03;;;5.98;91.30
59009;BME280;44794;42.652;23.318;2023-04-02T03:41:59;93636.38;;;5.88;92.58
59009;BME280;44794;42.652;23.318;2023-04-02T03:44:32;93631.19;;;5.52;94.69
59009;BME280;44794;42.652;23.318;2023-04-02T03:47:04;93626.47;;;5.46;96.29
59009;BME280;44794;42.652;23.318;2023-04-02T03:49:52;93627.81;;;5.39;97.18
59009;BME280;44794;42.652;23.318;2023-04-02T03:52:27;93620.47;;;5.22;97.71
59009;BME280;44794;42.652;23.318;2023-04-02T03:54:55;93614.09;;;5.16;98.19
59009;BME280;44794;42.652;23.318;2023-04-02T04:04:51;93602.28;;;5.01;100.00
59009;BME280;44794;42.652;23.318;2023-04-02T04:07:28;93611.34;;;4.94;100.00
59009;BME280;44794;42.652;23.318;2023-04-02T04:09:56;93621.50;;;4.83;100.00
59009;BME280;44794;42.652;23.318;2023-04-02T04:12:39;93612.47;;;4.77;100.00
59009;BME280;44794;42.652;23.318;2023-04-02T04:15:26;93616.91;;;4.75;100.00
59009;BME280;44794;42.652;23.318;2023-04-02T04:18:01;93617.63;;;4.65;100.00
59009;BME280;44794;42.652;23.318;2023-04-02T04:20:35;93614.94;;;4.66;100.00
59009;BME280;44794;42.652;23.318;2023-04-02T04:23:27;93615.13;;;4.63;100.00
59009;BME280;44794;42.652;23.318;2023-04-02T04:25:59;93616.38;;;4.70;100.00
59009;BME280;44794;42.652;23.318;2023-04-02T04:31:47;93624.41;;;4.66;100.00
59009;BME280;44794;42.652;23.318;2023-04-02T04:34:24;93627.91;;;4.65;100.00
59009;BME280;44794;42.652;23.318;2023-04-02T04:36:58;93627.59;;;4.57;100.00
59009;BME280;44794;42.652;23.318;2023-04-02T04:39:42;93620.97;;;4.53;100.00
59009;BME280;44794;42.652;23.318;2023-04-02T04:42:19;93625.31;;;4.52;100.00
59009;BME280;44794;42.652;23.318;2023-04-02T04:45:07;93630.34;;;4.54;100.00
59009;BME280;44794;42.652;23.318;2023-04-02T04:47:46;93635.47;;;4.54;100.00
59009;BME280;44794;42.652;23.318;2023-04-02T04:52:48;93629.66;;;4.77;100.00
59009;BME280;44794;42.652;23.318;2023-04-02T04:55:42;93640.44;;;4.82;100.00
59009;BME280;44794;42.652;23.318;2023-04-02T05:08:49;93656.06;;;5.16;100.00
59009;BME280;44794;42.652;23.318;2023-04-02T05:11:35;93653.59;;;5.27;100.00
59009;BME280;44794;42.652;23.318;2023-04-02T05:14:31;93644.84;;;5.29;100.00
59009;BME280;44794;42.652;23.318;2023-04-02T05:16:59;93655.41;;;5.37;100.00
59009;BME280;44794;42.652;23.318;2023-04-02T05:19:36;93660.72;;;5.59;100.00
59009;BME280;44794;42.652;23.318;2023-04-02T05:25:29;93672.66;;;5.85;99.99
59009;BME280;44794;42.652;23.318;2023-04-02T05:33:02;93689.50;;;6.48;95.26
59009;BME280;44794;42.652;23.318;2023-04-02T05:35:35;93704.47;;;6.67;93.71
59009;BME280;44794;42.652;23.318;2023-04-02T05:38:01;93705.94;;;6.92;92.40
59009;BME280;44794;42.652;23.318;2023-04-02T05:40:47;93717.03;;;7.16;90.59
59009;BME280;44794;42.652;23.318;2023-04-02T05:43:17;93723.97;;;7.38;89.75
59009;BME280;44794;42.652;23.318;2023-04-02T05:45:50;93713.91;;;7.89;88.65
59009;BME280;44794;42.652;23.318;2023-04-02T05:48:20;93735.13;;;10.01;82.05
59009;BME280;44794;42.652;23.318;2023-04-02T05:50:50;93761.13;;;14.03;63.35
59009;BME280;44794;42.652;23.318;2023-04-02T05:53:23;93757.81;;;14.51;52.87
59009;BME280;44794;42.652;23.318;2023-04-02T05:58:28;93774.78;;;18.88;41.27
59009;BME280;44794;42.652;23.318;2023-04-02T06:01:01;93784.59;;;20.15;37.99
59009;BME280;44794;42.652;23.318;2023-04-02T06:03:47;93783.50;;;19.53;37.30
59009;BME280;44794;42.652;23.318;2023-04-02T06:12:40;93778.00;;;22.65;32.62
59009;BME280;44794;42.652;23.318;2023-04-02T06:15:15;93781.06;;;24.08;30.47
59009;BME280;44794;42.652;23.318;2023-04-02T06:17:46;93773.88;;;24.52;29.68
59009;BME280;44794;42.652;23.318;2023-04-02T06:20:14;93761.28;;;24.65;29.13
59009;BME280;44794;42.652;23.318;2023-04-02T06:22:43;93767.25;;;23.49;30.80
59009;BME280;44794;42.652;23.318;2023-04-02T06:25:12;93771.03;;;21.99;32.37
59009;BME280;44794;42.652;23.318;2023-04-02T06:27:41;93769.06;;;22.66;32.07
59009;BME280;44794;42.652;23.318;2023-04-02T06:30:17;93767.41;;;21.07;33.44
59009;BME280;44794;42.652;23.318;2023-04-02T06:32:43;93767.13;;;21.29;32.70
59009;BME280;44794;42.652;23.318;2023-04-02T06:35:13;93766.91;;;21.78;32.97
59009;BME280;44794;42.652;23.318;2023-04-02T06:37:41;93770.28;;;22.31;31.19
59009;BME280;44794;42.652;23.318;2023-04-02T06:40:32;93766.84;;;22.31;31.54
59009;BME280;44794;42.652;23.318;2023-04-02T06:43:00;93760.09;;;22.28;31.13
59009;BME280;44794;42.652;23.318;2023-04-02T06:45:34;93761.00;;;21.76;32.09
59009;BME280;44794;42.652;23.318;2023-04-02T06:48:03;93765.97;;;22.11;31.56
59009;BME280;44794;42.652;23.318;2023-04-02T06:50:36;93764.53;;;22.28;31.23
59009;BME280;44794;42.652;23.318;2023-04-02T06:53:05;93768.22;;;20.46;34.09
59009;BME280;44794;42.652;23.318;2023-04-02T06:58:21;93766.47;;;16.14;41.79
59009;BME280;44794;42.652;23.318;2023-04-02T07:00:48;93764.72;;;15.01;45.20
59009;BME280;44794;42.652;23.318;2023-04-02T07:05:41;93766.03;;;14.23;48.78
59009;BME280;44794;42.652;23.318;2023-04-02T07:08:07;93777.59;;;13.60;49.97
59009;BME280;44794;42.652;23.318;2023-04-02T07:10:33;93769.47;;;13.11;50.94
59009;BME280;44794;42.652;23.318;2023-04-02T07:12:58;93763.88;;;12.89;51.37
59009;BME280;44794;42.652;23.318;2023-04-02T07:15:26;93768.28;;;12.88;51.45
59009;BME280;44794;42.652;23.318;2023-04-02T07:17:52;93770.56;;;12.38;52.69
59009;BME280;44794;42.652;23.318;2023-04-02T07:20:25;93775.19;;;12.07;52.42
59009;BME280;44794;42.652;23.318;2023-04-02T07:22:52;93772.13;;;11.66;52.21
59009;BME280;44794;42.652;23.318;2023-04-02T07:25:18;93778.84;;;11.50;53.37
59009;BME280;44794;42.652;23.318;2023-04-02T07:27:43;93775.78;;;11.83;54.52
59009;BME280;44794;42.652;23.318;2023-04-02T07:30:09;93782.66;;;11.74;52.98
59009;BME280;44794;42.652;23.318;2023-04-02T07:32:34;93784.56;;;11.82;53.48
59009;BME280;44794;42.652;23.318;2023-04-02T07:35:01;93774.09;;;12.10;53.06
59009;BME280;44794;42.652;23.318;2023-04-02T07:37:27;93777.31;;;12.31;50.94
59009;BME280;44794;42.652;23.318;2023-04-02T07:39:52;93787.41;;;12.34;48.86
59009;BME280;44794;42.652;23.318;2023-04-02T07:42:17;93797.03;;;12.33;49.63
59009;BME280;44794;42.652;23.318;2023-04-02T07:44:43;93788.59;;;12.49;50.46
59009;BME280;44794;42.652;23.318;2023-04-02T07:47:08;93796.75;;;12.36;48.09
59009;BME280;44794;42.652;23.318;2023-04-02T07:49:34;93791.19;;;12.49;48.75
59009;BME280;44794;42.652;23.318;2023-04-02T07:52:00;93790.19;;;12.59;48.82
59009;BME280;44794;42.652;23.318;2023-04-02T07:54:25;93791.94;;;12.95;48.44
59009;BME280;44794;42.652;23.318;2023-04-02T07:56:51;93792.66;;;13.14;46.96
59009;BME280;44794;42.652;23.318;2023-04-02T07:59:16;93796.53;;;13.28;45.70
59009;BME280;44794;42.652;23.318;2023-04-02T08:01:42;93784.16;;;13.47;45.66
59009;BME280;44794;42.652;23.318;2023-04-02T08:04:16;93788.56;;;13.64;44.49
59009;BME280;44794;42.652;23.318;2023-04-02T08:06:42;93792.78;;;13.82;45.21
59009;BME280;44794;42.652;23.318;2023-04-02T08:09:07;93798.66;;;14.27;44.28
59009;BME280;44794;42.652;23.318;2023-04-02T08:11:33;93799.03;;;14.65;45.24
59009;BME280;44794;42.652;23.318;2023-04-02T08:13:58;93806.16;;;14.89;42.66
59009;BME280;44794;42.652;23.318;2023-04-02T08:16:24;93804.53;;;14.04;43.83
59009;BME280;44794;42.652;23.318;2023-04-02T08:18:50;93804.66;;;13.77;45.28
59009;BME280;44794;42.652;23.318;2023-04-02T08:21:15;93798.81;;;13.83;44.95
59009;BME280;44794;42.652;23.318;2023-04-02T08:23:41;93806.81;;;13.64;44.99
59009;BME280;44794;42.652;23.318;2023-04-02T08:26:08;93803.19;;;13.57;45.50
59009;BME280;44794;42.652;23.318;2023-04-02T08:28:34;93799.44;;;13.42;45.00
59009;BME280;44794;42.652;23.318;2023-04-02T08:30:59;93802.75;;;13.44;46.11
59009;BME280;44794;42.652;23.318;2023-04-02T08:33:25;93803.19;;;13.57;45.38
59009;BME280;44794;42.652;23.318;2023-04-02T08:35:51;93801.81;;;13.36;45.58
59009;BME280;44794;42.652;23.318;2023-04-02T08:38:18;93805.72;;;13.49;45.60
59009;BME280;44794;42.652;23.318;2023-04-02T08:40:47;93813.97;;;13.27;45.32
59009;BME280;44794;42.652;23.318;2023-04-02T08:48:24;93809.00;;;13.51;45.63
59009;BME280;44794;42.652;23.318;2023-04-02T08:50:50;93811.50;;;13.78;44.93
59009;BME280;44794;42.652;23.318;2023-04-02T08:53:25;93810.81;;;14.36;43.60
59009;BME280;44794;42.652;23.318;2023-04-02T08:55:59;93807.22;;;14.12;43.06
59009;BME280;44794;42.652;23.318;2023-04-02T08:58:58;93801.84;;;14.38;44.07
59009;BME280;44794;42.652;23.318;2023-04-02T09:01:39;93805.41;;;14.63;43.83
59009;BME280;44794;42.652;23.318;2023-04-02T09:04:14;93812.91;;;14.99;41.62
59009;BME280;44794;42.652;23.318;2023-04-02T09:06:41;93809.84;;;14.62;41.55
59009;BME280;44794;42.652;23.318;2023-04-02T09:09:08;93802.56;;;14.23;43.17
59009;BME280;44794;42.652;23.318;2023-04-02T09:14:18;93810.34;;;14.74;41.77
59009;BME280;44794;42.652;23.318;2023-04-02T09:16:48;93806.78;;;14.49;42.64
59009;BME280;44794;42.652;23.318;2023-04-02T09:22:03;93807.91;;;14.72;41.69
59009;BME280;44794;42.652;23.318;2023-04-02T09:24:30;93811.19;;;14.74;41.62
59009;BME280;44794;42.652;23.318;2023-04-02T09:26:56;93801.41;;;14.84;41.72
59009;BME280;44794;42.652;23.318;2023-04-02T09:29:37;93801.25;;;15.27;40.62
59009;BME280;44794;42.652;23.318;2023-04-02T09:37:37;93797.41;;;15.05;39.98
59009;BME280;44794;42.652;23.318;2023-04-02T09:40:31;93794.16;;;15.11;40.15
59009;BME280;44794;42.652;23.318;2023-04-02T09:45:37;93791.69;;;15.43;39.45
59009;BME280;44794;42.652;23.318;2023-04-02T09:48:16;93769.25;;;15.49;38.63
59009;BME280;44794;42.652;23.318;2023-04-02T09:50:46;93795.47;;;15.15;39.44
59009;BME280;44794;42.652;23.318;2023-04-02T09:53:28;93782.06;;;15.68;39.83
59009;BME280;44794;42.652;23.318;2023-04-02T09:56:14;93788.25;;;16.22;39.76
59009;BME280;44794;42.652;23.318;2023-04-02T09:58:41;93780.41;;;16.30;39.56
59009;BME280;44794;42.652;23.318;2023-04-02T10:01:25;93789.91;;;15.99;36.84
59009;BME280;44794;42.652;23.318;2023-04-02T10:03:51;93785.81;;;15.73;38.12
59009;BME280;44794;42.652;23.318;2023-04-02T10:06:17;93790.78;;;15.27;37.53
59009;BME280;44794;42.652;23.318;2023-04-02T10:08:43;93784.97;;;15.49;37.82
59009;BME280;44794;42.652;23.318;2023-04-02T10:11:15;93781.88;;;16.09;38.01
59009;BME280;44794;42.652;23.318;2023-04-02T10:13:53;93769.66;;;16.63;38.35
59009;BME280;44794;42.652;23.318;2023-04-02T10:16:39;93767.16;;;17.16;37.24
59009;BME280;44794;42.652;23.318;2023-04-02T10:21:39;93770.50;;;17.63;36.48
59009;BME280;44794;42.652;23.318;2023-04-02T10:24:12;93770.06;;;17.29;35.35
59009;BME280;44794;42.652;23.318;2023-04-02T10:32:34;93767.13;;;17.77;35.92
59009;BME280;44794;42.652;23.318;2023-04-02T10:35:17;93769.28;;;17.73;36.09
59009;BME280;44794;42.652;23.318;2023-04-02T10:40:13;93775.19;;;16.76;38.38
59009;BME280;44794;42.652;23.318;2023-04-02T10:45:46;93767.22;;;17.00;38.42
59009;BME280;44794;42.652;23.318;2023-04-02T10:53:49;93762.38;;;16.03;40.65
59009;BME280;44794;42.652;23.318;2023-04-02T10:56:17;93759.78;;;15.79;40.38
59009;BME280;44794;42.652;23.318;2023-04-02T10:59:11;93755.19;;;15.50;40.45
59009;BME280;44794;42.652;23.318;2023-04-02T11:01:40;93745.31;;;15.20;42.28
59009;BME280;44794;42.652;23.318;2023-04-02T11:04:16;93746.22;;;14.87;42.29
59009;BME280;44794;42.652;23.318;2023-04-02T11:07:16;93746.22;;;14.87;42.61
59009;BME280;44794;42.652;23.318;2023-04-02T11:09:46;93753.53;;;14.76;42.70
59009;BME280;44794;42.652;23.318;2023-04-02T11:12:24;93746.28;;;14.62;43.24
59009;BME280;44794;42.652;23.318;2023-04-02T11:14:52;93742.25;;;14.75;43.95
59009;BME280;44794;42.652;23.318;2023-04-02T11:17:18;93757.88;;;14.59;43.14
59009;BME280;44794;42.652;23.318;2023-04-02T11:19:44;93765.38;;;14.54;43.86
59009;BME280;44794;42.652;23.318;2023-04-02T11:24:52;93752.00;;;15.06;43.50
59009;BME280;44794;42.652;23.318;2023-04-02T11:27:34;93749.44;;;15.30;41.62
59009;BME280;44794;42.652;23.318;2023-04-02T11:32:43;93745.41;;;15.52;41.75
59009;BME280;44794;42.652;23.318;2023-04-02T11:37:59;93735.88;;;15.43;41.50
59009;BME280;44794;42.652;23.318;2023-04-02T11:48:33;93738.81;;;15.24;41.22
59009;BME280;44794;42.652;23.318;2023-04-02T11:51:47;93730.53;;;14.87;41.54
59009;BME280;44794;42.652;23.318;2023-04-02T11:53:50;93733.50;;;14.51;42.08
59009;BME280;44794;42.652;23.318;2023-04-02T12:01:40;93719.94;;;14.97;42.53
59009;BME280;44794;42.652;23.318;2023-04-02T12:09:25;93723.13;;;15.56;40.72
59009;BME280;44794;42.652;23.318;2023-04-02T12:11:57;93725.28;;;15.84;40.13
59009;BME280;44794;42.652;23.318;2023-04-02T12:17:14;93729.03;;;15.66;40.40
59009;BME280;44794;42.652;23.318;2023-04-02T12:19:46;93732.47;;;15.58;40.47
59009;BME280;44794;42.652;23.318;2023-04-02T12:22:30;93724.78;;;15.57;40.56
59009;BME280;44794;42.652;23.318;2023-04-02T12:25:03;93720.84;;;15.84;40.28
59009;BME280;44794;42.652;23.318;2023-04-02T12:27:29;93724.44;;;15.99;39.35
59009;BME280;44794;42.652;23.318;2023-04-02T12:30:21;93729.19;;;15.88;39.48
59009;BME280;44794;42.652;23.318;2023-04-02T12:32:48;93721.16;;;15.89;39.89
59009;BME280;44794;42.652;23.318;2023-04-02T12:35:43;93729.84;;;15.66;40.03
59009;BME280;44794;42.652;23.318;2023-04-02T12:38:27;93730.00;;;15.41;40.26
59009;BME280;44794;42.652;23.318;2023-04-02T12:40:53;93723.47;;;15.37;41.05
59009;BME280;44794;42.652;23.318;2023-04-02T12:43:24;93710.72;;;15.74;41.05
59009;BME280;44794;42.652;23.318;2023-04-02T12:45:51;93716.09;;;15.96;39.71
59009;BME280;44794;42.652;23.318;2023-04-02T12:48:17;93727.16;;;16.14;39.25
59009;BME280;44794;42.652;23.318;2023-04-02T12:50:43;93720.53;;;15.79;39.50
59009;BME280;44794;42.652;23.318;2023-04-02T12:55:56;93719.84;;;15.62;39.17
59009;BME280;44794;42.652;23.318;2023-04-02T13:00:51;93699.69;;;16.18;38.71
59009;BME280;44794;42.652;23.318;2023-04-02T13:03:19;93694.50;;;16.56;38.15
59009;BME280;44794;42.652;23.318;2023-04-02T13:05:53;93694.13;;;16.59;37.95
59009;BME280;44794;42.652;23.318;2023-04-02T13:08:40;93700.44;;;16.50;36.90
59009;BME280;44794;42.652;23.318;2023-04-02T13:11:06;93692.22;;;16.45;37.07
59009;BME280;44794;42.652;23.318;2023-04-02T13:13:37;93700.16;;;16.37;37.83
59009;BME280;44794;42.652;23.318;2023-04-02T13:18:45;93696.41;;;16.08;37.66
59009;BME280;44794;42.652;23.318;2023-04-02T13:23:45;93701.72;;;15.76;38.86
59009;BME280;44794;42.652;23.318;2023-04-02T13:26:26;93698.25;;;15.76;38.35
59009;BME280;44794;42.652;23.318;2023-04-02T13:28:55;93697.13;;;15.70;38.58
59009;BME280;44794;42.652;23.318;2023-04-02T13:31:21;93698.44;;;15.58;39.14
59009;BME280;44794;42.652;23.318;2023-04-02T13:33:46;93694.69;;;15.45;39.20
59009;BME280;44794;42.652;23.318;2023-04-02T13:36:13;93691.91;;;15.54;38.51
59009;BME280;44794;42.652;23.318;2023-04-02T13:38:39;93697.94;;;15.55;38.43
59009;BME280;44794;42.652;23.318;2023-04-02T13:41:04;93703.84;;;15.73;37.92
59009;BME280;44794;42.652;23.318;2023-04-02T13:43:30;93696.97;;;15.56;38.33
59009;BME280;44794;42.652;23.318;2023-04-02T13:45:57;93691.09;;;15.46;38.35
59009;BME280;44794;42.652;23.318;2023-04-02T13:48:24;93700.56;;;15.31;38.51
59009;BME280;44794;42.652;23.318;2023-04-02T13:50:53;93702.84;;;15.34;38.76
59009;BME280;44794;42.652;23.318;2023-04-02T13:53:28;93694.69;;;15.61;38.79
59009;BME280;44794;42.652;23.318;2023-04-02T13:55:55;93693.69;;;15.70;37.58
59009;BME280;44794;42.652;23.318;2023-04-02T13:58:20;93692.22;;;15.59;37.24
59009;BME280;44794;42.652;23.318;2023-04-02T14:00:47;93699.75;;;15.70;37.15
59009;BME280;44794;42.652;23.318;2023-04-02T14:03:18;93695.63;;;15.83;36.61
59009;BME280;44794;42.652;23.318;2023-04-02T14:06:19;93694.97;;;15.97;36.04
59009;BME280;44794;42.652;23.318;2023-04-02T14:09:17;93693.50;;;15.95;36.42
59009;BME280;44794;42.652;23.318;2023-04-02T14:13:05;93690.09;;;15.78;36.04
59009;BME280;44794;42.652;23.318;2023-04-02T14:23:16;93695.34;;;15.47;36.94
59009;BME280;44794;42.652;23.318;2023-04-02T14:40:10;93679.31;;;15.34;36.94
59009;BME280;44794;42.652;23.318;2023-04-02T14:42:59;93677.97;;;15.22;37.19
59009;BME280;44794;42.652;23.318;2023-04-02T14:50:52;93683.16;;;14.90;37.82
59009;BME280;44794;42.652;23.318;2023-04-02T14:53:25;93677.28;;;14.96;38.10
59009;BME280;44794;42.652;23.318;2023-04-02T14:55:53;93688.88;;;14.94;38.28
59009;BME280;44794;42.652;23.318;2023-04-02T14:58:32;93682.47;;;14.80;38.15
59009;BME280;44794;42.652;23.318;2023-04-02T15:01:04;93693.44;;;14.84;38.03
59009;BME280;44794;42.652;23.318;2023-04-02T15:03:45;93694.09;;;14.86;38.30
59009;BME280;44794;42.652;23.318;2023-04-02T15:06:19;93699.16;;;14.87;38.03
59009;BME280;44794;42.652;23.318;2023-04-02T15:09:01;93702.09;;;14.92;38.24
59009;BME280;44794;42.652;23.318;2023-04-02T15:11:40;93703.75;;;14.93;37.57
59009;BME280;44794;42.652;23.318;2023-04-02T15:14:16;93707.03;;;14.95;37.90
59009;BME280;44794;42.652;23.318;2023-04-02T15:16:43;93704.72;;;15.00;37.84
59009;BME280;44794;42.652;23.318;2023-04-02T15:19:14;93705.41;;;15.02;38.13
59009;BME280;44794;42.652;23.318;2023-04-02T15:30:12;93700.94;;;14.79;37.55
59009;BME280;44794;42.652;23.318;2023-04-02T15:32:40;93697.66;;;14.77;37.96
59009;BME280;44794;42.652;23.318;2023-04-02T15:35:35;93704.56;;;14.86;38.19
59009;BME280;44794;42.652;23.318;2023-04-02T15:40:38;93704.09;;;14.90;37.43
59009;BME280;44794;42.652;23.318;2023-04-02T15:45:47;93693.59;;;14.82;37.46
59009;BME280;44794;42.652;23.318;2023-04-02T15:56:25;93708.31;;;14.42;37.93
59009;BME280;44794;42.652;23.318;2023-04-02T16:04:43;93724.75;;;14.27;37.60
59009;BME280;44794;42.652;23.318;2023-04-02T16:07:26;93721.91;;;14.20;37.29
59009;BME280;44794;42.652;23.318;2023-04-02T16:10:28;93724.91;;;14.08;37.75
59009;BME280;44794;42.652;23.318;2023-04-02T16:12:55;93725.75;;;14.08;37.75
59009;BME280;44794;42.652;23.318;2023-04-02T16:15:25;93725.06;;;14.06;38.61
59009;BME280;44794;42.652;23.318;2023-04-02T16:18:16;93727.78;;;13.97;38.77
59009;BME280;44794;42.652;23.318;2023-04-02T16:20:49;93722.69;;;13.87;38.78
59009;BME280;44794;42.652;23.318;2023-04-02T16:23:37;93729.31;;;13.82;39.16
59009;BME280;44794;42.652;23.318;2023-04-02T16:29:11;93732.91;;;13.81;40.60
59009;BME280;44794;42.652;23.318;2023-04-02T16:34:46;93739.72;;;13.56;40.98
59009;BME280;44794;42.652;23.318;2023-04-02T16:40:31;93725.47;;;13.26;42.15
59009;BME280;44794;42.652;23.318;2023-04-02T16:43:25;93729.72;;;13.09;42.90
59009;BME280;44794;42.652;23.318;2023-04-02T16:46:10;93733.13;;;12.92;42.76
59009;BME280;44794;42.652;23.318;2023-04-02T16:48:53;93727.13;;;12.82;43.10
59009;BME280;44794;42.652;23.318;2023-04-02T16:53:57;93739.59;;;12.62;43.85
59009;BME280;44794;42.652;23.318;2023-04-02T17:04:55;93746.69;;;12.06;44.65
59009;BME280;44794;42.652;23.318;2023-04-02T17:07:42;93747.56;;;11.97;45.14
59009;BME280;44794;42.652;23.318;2023-04-02T17:13:14;93753.09;;;11.75;45.66
59009;BME280;44794;42.652;23.318;2023-04-02T17:15:47;93759.13;;;11.66;46.18
59009;BME280;44794;42.652;23.318;2023-04-02T17:18:19;93765.44;;;11.54;46.19
59009;BME280;44794;42.652;23.318;2023-04-02T17:20:48;93756.25;;;11.50;46.23
59009;BME280;44794;42.652;23.318;2023-04-02T17:23:15;93770.50;;;11.37;46.53
59009;BME280;44794;42.652;23.318;2023-04-02T17:25:54;93765.72;;;11.32;46.50